Time;durP1;ratioP1;P1;durP2;ratioP2;P2;SDS_P1;SDS_P2;PMS_P1;PMS_P2;Temp;Humidity;BMP_temperature;BMP_pressure;BME280_temperature;BME280_humidity;BME280_pressure;Samples;Min_cycle;Max_cycle;Signal;HPM_P1;HPM_P2
2022/10/10 00:00:25;;;;;;;44.65;24.25;;;;;;;18.58;100.00;94863.25;5076734;28;20039;-85
2022/10/10 00:02:50;;;;;;;35.90;23.25;;;;;;;18.49;100.00;94858.66;5076893;28;20392;-85
2022/10/10 00:05:16;;;;;;;44.72;23.58;;;;;;;18.35;100.00;94856.13;5076807;28;20085;-85
2022/10/10 00:07:41;;;;;;;38.13;22.52;;;;;;;18.35;100.00;94848.16;5076917;28;20028;-85
2022/10/10 00:10:07;;;;;;;43.05;23.75;;;;;;;18.36;100.00;94846.28;5076652;28;20441;-85
2022/10/10 00:12:32;;;;;;;256.92;28.95;;;;;;;18.02;100.00;94850.28;5076627;28;20060;-85
2022/10/10 00:14:58;;;;;;;57.08;23.30;;;;;;;18.15;100.00;94843.41;5076951;28;20093;-85
2022/10/10 00:17:23;;;;;;;128.15;24.80;;;;;;;18.18;100.00;94840.13;5077713;28;20095;-85
2022/10/10 00:19:49;;;;;;;50.13;27.17;;;;;;;18.14;100.00;94844.44;5076191;28;20128;-85
2022/10/10 00:22:14;;;;;;;45.88;26.65;;;;;;;18.27;100.00;94840.16;5076008;28;20032;-85
2022/10/10 00:24:40;;;;;;;44.38;25.55;;;;;;;18.28;100.00;94839.06;5077636;28;20032;-85
2022/10/10 00:27:05;;;;;;;40.05;24.67;;;;;;;18.26;100.00;94835.94;5059737;28;20448;-85
2022/10/10 00:29:30;;;;;;;52.67;27.60;;;;;;;18.28;100.00;94842.50;5076533;28;20043;-85
2022/10/10 00:31:56;;;;;;;38.17;24.27;;;;;;;18.50;100.00;94836.34;5077456;28;20032;-85
2022/10/10 00:34:21;;;;;;;31.48;21.15;;;;;;;18.78;100.00;94838.78;5077482;28;20186;-85
2022/10/10 00:36:47;;;;;;;38.22;25.13;;;;;;;18.86;100.00;94847.09;5076244;28;20032;-85
2022/10/10 00:39:12;;;;;;;37.92;22.27;;;;;;;18.96;100.00;94840.72;5076015;28;20040;-85
2022/10/10 00:41:37;;;;;;;39.88;24.52;;;;;;;18.97;100.00;94845.75;5059665;28;20123;-85
2022/10/10 00:44:14;;;;;;;38.22;23.67;;;;;;;19.05;100.00;94845.00;5076062;28;20029;-85
2022/10/10 00:46:39;;;;;;;36.13;24.38;;;;;;;18.99;100.00;94846.25;5076019;28;20024;-85
2022/10/10 00:49:26;;;;;;;43.95;26.08;;;;;;;18.96;100.00;94846.84;5076173;28;20039;-85
2022/10/10 00:51:55;;;;;;;40.53;25.15;;;;;;;18.95;100.00;94845.28;5075686;28;20032;-85
2022/10/10 00:54:21;;;;;;;37.72;25.60;;;;;;;18.80;100.00;94843.81;5076208;28;20064;-85
2022/10/10 00:56:50;;;;;;;41.70;26.65;;;;;;;18.94;100.00;94849.78;5076063;28;20045;-85
2022/10/10 00:59:17;;;;;;;43.88;25.48;;;;;;;18.72;100.00;94844.56;5059009;28;20039;-85
2022/10/10 01:01:42;;;;;;;39.88;25.42;;;;;;;18.85;100.00;94848.19;5075968;28;20040;-85
2022/10/10 01:04:37;;;;;;;39.67;24.55;;;;;;;19.05;100.00;94845.00;5059350;28;20031;-85
2022/10/10 01:07:15;;;;;;;36.63;24.30;;;;;;;19.01;100.00;94841.41;5059202;28;20044;-85
2022/10/10 01:09:42;;;;;;;40.50;26.30;;;;;;;19.00;100.00;94836.38;5059147;28;20032;-85
2022/10/10 01:12:16;;;;;;;39.78;23.27;;;;;;;19.06;100.00;94843.13;5075981;28;20032;-85
2022/10/10 01:15:05;;;;;;;40.15;25.23;;;;;;;18.85;100.00;94845.53;5076921;28;20052;-86
2022/10/10 01:17:43;;;;;;;44.88;24.83;;;;;;;19.03;100.00;94836.56;5075714;28;20020;-85
2022/10/10 01:20:23;;;;;;;46.00;25.90;;;;;;;19.02;100.00;94836.88;5075542;28;20020;-85
2022/10/10 01:23:14;;;;;;;39.25;25.20;;;;;;;19.01;100.00;94833.44;5076810;28;20350;-85
2022/10/10 01:25:48;;;;;;;41.05;25.75;;;;;;;18.37;100.00;94839.91;5075545;28;20021;-85
2022/10/10 01:28:56;;;;;;;39.92;25.80;;;;;;;18.68;100.00;94836.44;5075563;28;20032;-85
2022/10/10 01:31:23;;;;;;;35.05;23.17;;;;;;;18.90;100.00;94832.91;5076635;28;20341;-85
2022/10/10 01:34:07;;;;;;;41.67;26.65;;;;;;;18.60;100.00;94832.66;5075374;28;20024;-85
2022/10/10 01:36:53;;;;;;;41.10;26.17;;;;;;;18.84;100.00;94823.50;5076587;28;20035;-85
2022/10/10 01:39:39;;;;;;;37.40;24.38;;;;;;;18.90;100.00;94821.50;5058784;28;20048;-85
2022/10/10 01:42:36;;;;;;;35.15;22.83;;;;;;;18.90;100.00;94817.00;5058782;28;20028;-85
2022/10/10 01:45:01;;;;;;;38.60;24.15;;;;;;;18.58;100.00;94821.59;5088449;28;20085;-86
2022/10/10 01:47:27;;;;;;;40.58;24.98;;;;;;;18.56;100.00;94818.44;5069617;28;20032;-86
2022/10/10 01:49:56;;;;;;;37.55;23.77;;;;;;;18.75;100.00;94820.84;5081209;28;20044;-86
2022/10/10 01:52:40;;;;;;;41.58;27.00;;;;;;;18.10;100.00;94812.47;5075265;28;20072;-86
2022/10/10 01:55:27;;;;;;;49.17;28.20;;;;;;;18.19;100.00;94810.63;5083277;28;20067;-86
2022/10/10 01:58:31;;;;;;;47.75;28.38;;;;;;;17.98;100.00;94809.56;5076191;28;20036;-85
2022/10/10 02:01:09;;;;;;;59.08;31.80;;;;;;;17.77;100.00;94810.06;5067744;28;20431;-86
2022/10/10 02:03:42;;;;;;;59.45;33.90;;;;;;;17.70;100.00;94810.47;5075114;28;20112;-86
2022/10/10 02:06:16;;;;;;;62.05;35.45;;;;;;;17.62;100.00;94804.03;5075096;28;20504;-85
2022/10/10 02:08:50;;;;;;;52.50;31.77;;;;;;;17.97;100.00;94806.13;5075370;28;20120;-86
2022/10/10 02:11:15;;;;;;;;;;;;;;;18.28;100.00;94805.38;5075560;28;20029;-86
2022/10/10 02:13:45;;;;;;;52.60;28.27;;;;;;;18.02;100.00;94805.22;5058536;28;19915;-86
2022/10/10 02:16:32;;;;;;;49.30;29.65;;;;;;;18.26;100.00;94796.16;5058408;28;20703;-86
2022/10/10 02:18:59;;;;;;;49.67;30.27;;;;;;;17.88;100.00;94800.78;5090019;28;20042;-85
2022/10/10 02:21:25;;;;;;;55.85;32.70;;;;;;;17.57;100.00;94804.16;5095372;28;20078;-86
2022/10/10 02:23:53;;;;;;;56.97;32.50;;;;;;;17.64;100.00;94801.09;5078605;28;20035;-86
2022/10/10 02:26:20;;;;;;;57.80;32.78;;;;;;;17.62;100.00;94797.97;5094980;28;20032;-86
2022/10/10 02:28:59;;;;;;;58.08;34.80;;;;;;;17.43;100.00;94801.56;5094974;28;20028;-85
2022/10/10 02:31:47;;;;;;;53.97;32.13;;;;;;;17.47;100.00;94799.09;5095024;28;20050;-85
2022/10/10 02:34:18;;;;;;;59.75;33.42;;;;;;;17.46;100.00;94794.88;5095341;28;20357;-85
2022/10/10 02:36:46;;;;;;;53.92;31.77;;;;;;;17.76;100.00;94795.25;5095049;28;20344;-86
2022/10/10 02:39:13;;;;;;;53.42;30.88;;;;;;;17.76;100.00;94793.38;5094938;28;20487;-86
2022/10/10 02:41:40;;;;;;;51.45;28.98;;;;;;;17.78;100.00;94803.66;5094960;28;20031;-85
2022/10/10 02:44:05;;;;;;;47.95;28.58;;;;;;;17.61;100.00;94797.16;5096305;28;20040;-86
2022/10/10 02:46:31;;;;;;;50.28;30.58;;;;;;;17.47;100.00;94799.09;5098861;28;20038;-86
2022/10/10 02:48:57;;;;;;;46.03;27.42;;;;;;;17.84;100.00;94797.16;5098772;28;20046;-86
2022/10/10 02:51:23;;;;;;;38.55;26.05;;;;;;;18.20;100.00;94798.94;5099735;28;20043;-86
2022/10/10 02:53:48;;;;;;;42.83;25.67;;;;;;;17.83;100.00;94806.22;5098491;28;20032;-86
2022/10/10 02:56:14;;;;;;;44.28;27.30;;;;;;;17.53;100.00;94800.56;5098503;28;20035;-86
2022/10/10 02:58:39;;;;;;;44.53;26.88;;;;;;;18.07;100.00;94794.50;5098587;28;20044;-86
2022/10/10 03:01:05;;;;;;;36.13;23.83;;;;;;;18.27;100.00;94798.50;5096501;28;20028;-86
2022/10/10 03:03:30;;;;;;;40.83;23.25;;;;;;;18.39;100.00;94791.84;5069192;28;20126;-86
2022/10/10 03:05:55;;;;;;;31.23;21.38;;;;;;;18.54;100.00;94806.59;5085751;28;20506;-86
2022/10/10 03:08:21;;;;;;;34.58;22.05;;;;;;;18.61;100.00;94802.38;5098215;28;20039;-86
2022/10/10 03:10:57;;;;;;;33.35;22.15;;;;;;;18.57;100.00;94801.41;5067048;28;20044;-86
2022/10/10 03:13:23;;;;;;;33.67;22.25;;;;;;;18.45;100.00;94804.66;5078040;28;20504;-86
2022/10/10 03:15:48;;;;;;;32.72;21.45;;;;;;;18.15;100.00;94801.72;5079062;28;20092;-86
2022/10/10 03:18:14;;;;;;;40.28;24.02;;;;;;;17.95;100.00;94797.69;5077583;28;20431;-86
2022/10/10 03:20:39;;;;;;;34.38;22.55;;;;;;;17.94;100.00;94793.47;5078881;28;20085;-86
2022/10/10 03:23:05;;;;;;;38.30;22.80;;;;;;;18.06;100.00;94801.69;5077633;28;20038;-86
2022/10/10 03:25:30;;;;;;;34.72;22.70;;;;;;;17.63;100.00;94800.28;5077516;28;20029;-86
2022/10/10 03:27:55;;;;;;;40.65;23.55;;;;;;;17.60;100.00;94802.78;5079095;28;20044;-86
2022/10/10 03:30:21;;;;;;;34.40;22.58;;;;;;;17.53;100.00;94797.91;5089729;28;20040;-86
2022/10/10 03:32:46;;;;;;;35.70;22.63;;;;;;;17.74;100.00;94802.72;5097710;28;20032;-86
2022/10/10 03:35:12;;;;;;;38.33;22.85;;;;;;;17.79;100.00;94792.00;5097966;28;20437;-86
2022/10/10 03:37:37;;;;;;;33.97;21.67;;;;;;;18.05;100.00;94794.03;5097705;28;20028;-86
2022/10/10 03:40:03;;;;;;;42.13;23.95;;;;;;;17.31;100.00;94799.44;5097506;28;20326;-86
2022/10/10 03:42:28;;;;;;;36.90;23.85;;;;;;;17.34;100.00;94798.06;5097713;28;20039;-86
2022/10/10 03:44:54;;;;;;;42.05;25.83;;;;;;;17.28;100.00;94800.03;5097462;28;20114;-86
2022/10/10 03:47:19;;;;;;;41.40;26.50;;;;;;;17.05;100.00;94800.00;5097427;28;20040;-86
2022/10/10 03:49:44;;;;;;;45.70;26.52;;;;;;;17.17;100.00;94793.41;5097359;28;20028;-85
2022/10/10 03:52:10;;;;;;;41.15;25.77;;;;;;;17.33;100.00;94793.84;5097563;28;20028;-86
2022/10/10 03:54:35;;;;;;;41.63;25.30;;;;;;;17.28;100.00;94797.41;5097328;28;20039;-85
2022/10/10 03:57:01;;;;;;;44.33;24.45;;;;;;;17.37;100.00;94800.91;5096624;28;20040;-86
2022/10/10 03:59:26;;;;;;;37.28;23.40;;;;;;;17.50;100.00;94801.13;5097102;28;20459;-86
2022/10/10 04:01:52;;;;;;;31.70;20.42;;;;;;;17.87;100.00;94793.16;5097494;28;20043;-86
2022/10/10 04:04:17;;;;;;;35.30;21.20;;;;;;;18.04;100.00;94789.81;5080501;28;20345;-86
2022/10/10 04:06:43;;;;;;;32.03;20.02;;;;;;;18.03;100.00;94797.00;5098071;28;20040;-86
2022/10/10 04:09:08;;;;;;;33.75;20.42;;;;;;;17.90;100.00;94788.00;5098080;28;20031;-85
2022/10/10 04:11:35;;;;;;;30.98;18.30;;;;;;;18.18;100.00;94801.13;5079036;28;20043;-85
2022/10/10 04:14:01;;;;;;;26.02;17.05;;;;;;;18.30;100.00;94805.06;5077003;28;20403;-85
2022/10/10 04:16:26;;;;;;;35.03;18.42;;;;;;;18.23;100.00;94801.00;5076951;28;20065;-85
2022/10/10 04:18:52;;;;;;;27.45;17.83;;;;;;;18.11;100.00;94798.13;5077621;28;20036;-85
2022/10/10 04:21:19;;;;;;;30.83;18.80;;;;;;;17.97;100.00;94794.75;5077557;28;20041;-85
2022/10/10 04:23:46;;;;;;;26.23;18.55;;;;;;;18.21;100.00;94797.09;5076479;28;20032;-86
2022/10/10 04:26:13;;;;;;;28.15;18.08;;;;;;;18.26;100.00;94799.59;5077787;28;20037;-86
2022/10/10 04:28:38;;;;;;;29.98;17.58;;;;;;;18.21;100.00;94794.44;5077482;28;20083;-86
2022/10/10 04:31:04;;;;;;;30.10;17.33;;;;;;;18.54;100.00;94793.31;5076159;28;20048;-87
2022/10/10 04:33:29;;;;;;;27.42;16.98;;;;;;;18.57;100.00;94790.03;5078061;28;20346;-86
2022/10/10 04:35:54;;;;;;;22.42;16.08;;;;;;;18.60;100.00;94792.88;5076268;28;20028;-86
2022/10/10 04:38:23;;;;;;;31.27;17.52;;;;;;;18.56;100.00;94793.78;5091907;28;20046;-87
2022/10/10 04:40:49;;;;;;;25.65;17.90;;;;;;;17.99;100.00;94792.56;5096956;28;20028;-87
2022/10/10 04:43:15;;;;;;;34.20;18.15;;;;;;;18.13;100.00;94785.34;5079774;28;20036;-86
2022/10/10 04:45:41;;;;;;;38.53;20.40;;;;;;;17.63;100.00;94788.94;5096343;28;20028;-87
2022/10/10 04:48:06;;;;;;;27.42;19.38;;;;;;;17.86;100.00;94788.91;5098027;28;20035;-87
2022/10/10 04:50:32;;;;;;;41.25;20.33;;;;;;;17.49;100.00;94786.31;5079788;28;20108;-85
2022/10/10 04:52:57;;;;;;;31.52;20.05;;;;;;;17.33;100.00;94791.22;5096091;28;20032;-86
2022/10/10 04:55:22;;;;;;;40.20;22.70;;;;;;;17.25;100.00;94792.72;5096300;28;20032;-85
2022/10/10 04:57:48;;;;;;;37.83;24.00;;;;;;;17.09;100.00;94792.25;5079671;28;20085;-85
2022/10/10 05:00:14;;;;;;;33.92;21.92;;;;;;;17.32;100.00;94794.94;5077541;28;20445;-86
2022/10/10 05:02:39;;;;;;;34.88;21.58;;;;;;;17.81;100.00;94792.47;5077057;28;20073;-85
2022/10/10 05:05:05;;;;;;;28.80;19.20;;;;;;;17.98;100.00;94794.44;5076924;28;20107;-86
2022/10/10 05:07:31;;;;;;;30.60;18.63;;;;;;;18.06;100.00;94792.94;5059122;28;20035;-86
2022/10/10 05:09:56;;;;;;;29.30;18.80;;;;;;;18.09;100.00;94800.31;5075921;28;20029;-85
2022/10/10 05:12:22;;;;;;;26.63;18.65;;;;;;;18.19;100.00;94799.25;5095204;28;20050;-85
2022/10/10 05:14:47;;;;;;;27.67;19.73;;;;;;;18.20;100.00;94800.81;5095928;28;20085;-85
2022/10/10 05:17:13;;;;;;;31.50;19.77;;;;;;;18.31;100.00;94806.63;5096118;28;20039;-85
2022/10/10 05:19:38;;;;;;;34.50;19.50;;;;;;;18.27;100.00;94795.09;5096212;28;20062;-86
2022/10/10 05:22:04;;;;;;;30.33;20.60;;;;;;;18.27;100.00;94803.03;5079465;28;20027;-86
2022/10/10 05:24:29;;;;;;;33.97;21.42;;;;;;;18.04;100.00;94801.22;5095987;28;20114;-86
2022/10/10 05:26:54;;;;;;;30.80;19.98;;;;;;;18.06;100.00;94803.53;5095550;28;20348;-85
2022/10/10 05:29:20;;;;;;;35.80;21.85;;;;;;;17.79;100.00;94807.91;5095893;28;20042;-84
2022/10/10 05:31:45;;;;;;;30.13;17.95;;;;;;;17.88;100.00;94808.72;5095558;28;20314;-84
2022/10/10 05:34:12;;;;;;;29.70;18.40;;;;;;;17.86;100.00;94818.06;5096247;28;20030;-84
2022/10/10 05:36:39;;;;;;;28.95;18.35;;;;;;;17.83;100.00;94810.72;5075087;28;20433;-84
2022/10/10 05:39:04;;;;;;;31.65;20.30;;;;;;;17.84;100.00;94807.78;5083801;28;20122;-84
2022/10/10 05:41:30;;;;;;;32.17;20.95;;;;;;;17.97;100.00;94808.78;5096807;28;20032;-84
2022/10/10 05:43:55;;;;;;;34.53;21.27;;;;;;;17.58;100.00;94813.69;5076784;28;20123;-85
2022/10/10 05:46:23;;;;;;;33.20;21.25;;;;;;;17.53;100.00;94814.56;5076419;28;20032;-84
2022/10/10 05:48:49;;;;;;;33.88;21.58;;;;;;;17.66;100.00;94812.97;5076311;28;20031;-84
2022/10/10 05:51:14;;;;;;;37.83;23.25;;;;;;;17.46;100.00;94811.56;5075163;28;20043;-84
2022/10/10 05:53:40;;;;;;;33.72;21.27;;;;;;;17.56;100.00;94812.41;5076320;28;20024;-84
2022/10/10 05:56:05;;;;;;;35.28;21.70;;;;;;;17.69;100.00;94824.03;5078785;28;20032;-84
2022/10/10 05:58:31;;;;;;;36.25;22.02;;;;;;;17.63;100.00;94821.50;5080273;28;20162;-84
2022/10/10 06:01:04;;;;;;;34.85;21.33;;;;;;;17.72;100.00;94818.13;5074931;28;20472;-84
2022/10/10 06:03:30;;;;;;;37.50;23.42;;;;;;;17.23;100.00;94824.00;5075556;28;20082;-84
2022/10/10 06:05:55;;;;;;;41.17;23.85;;;;;;;17.00;100.00;94820.50;5075680;28;20040;-85
2022/10/10 06:08:22;;;;;;;39.65;24.48;;;;;;;17.20;100.00;94819.28;5093566;28;20114;-85
2022/10/10 06:10:47;;;;;;;36.25;22.30;;;;;;;17.63;100.00;94820.72;5095083;28;21090;-84
2022/10/10 06:13:15;;;;;;;33.50;22.45;;;;;;;17.88;100.00;94831.81;5096687;28;20036;-84
2022/10/10 06:15:41;;;;;;;30.73;21.23;;;;;;;17.99;100.00;94835.75;5095337;28;20074;-84
2022/10/10 06:18:07;;;;;;;34.58;20.98;;;;;;;18.15;100.00;94830.13;5095115;28;20035;-84
2022/10/10 06:20:37;;;;;;;28.30;19.15;;;;;;;18.33;100.00;94828.34;5099029;28;20036;-84
2022/10/10 06:23:03;;;;;;;31.38;19.83;;;;;;;18.33;100.00;94833.63;5100342;28;20384;-84
2022/10/10 06:25:29;;;;;;;32.10;20.40;;;;;;;18.46;100.00;94840.72;5076835;28;20077;-84
2022/10/10 06:27:55;;;;;;;28.35;19.42;;;;;;;18.46;100.00;94835.41;5082515;28;20032;-84
2022/10/10 06:30:21;;;;;;;27.33;18.40;;;;;;;18.49;100.00;94834.78;5079875;28;20035;-87
2022/10/10 06:32:46;;;;;;;31.15;19.75;;;;;;;18.62;100.00;94837.66;5062133;28;20028;-87
2022/10/10 06:35:12;;;;;;;29.38;19.60;;;;;;;18.69;100.00;94837.22;5078785;28;20067;-86
2022/10/10 06:37:37;;;;;;;31.48;18.55;;;;;;;18.70;100.00;94838.78;5078574;28;20185;-87
2022/10/10 06:40:03;;;;;;;29.23;19.15;;;;;;;18.68;100.00;94840.97;5078936;28;20158;-87
2022/10/10 06:42:28;;;;;;;38.55;19.75;;;;;;;18.65;100.00;94842.38;5078678;28;20087;-87
2022/10/10 06:44:54;;;;;;;31.05;19.70;;;;;;;18.42;100.00;94858.34;5061958;28;20028;-87
2022/10/10 06:47:19;;;;;;;35.65;20.45;;;;;;;18.09;100.00;94862.06;5080067;28;20033;-87
2022/10/10 06:49:44;;;;;;;31.88;20.95;;;;;;;18.01;100.00;94854.03;5078403;28;20032;-87
2022/10/10 06:52:10;;;;;;;30.48;20.15;;;;;;;18.20;100.00;94853.84;5078519;28;20425;-87
2022/10/10 06:54:35;;;;;;;29.63;19.30;;;;;;;18.47;100.00;94854.78;5078217;28;20024;-87
2022/10/10 06:57:01;;;;;;;39.95;22.45;;;;;;;17.62;100.00;94850.97;5079603;28;20024;-87
2022/10/10 06:59:26;;;;;;;34.72;21.75;;;;;;;18.35;100.00;94850.81;5078225;28;20024;-87
2022/10/10 07:01:51;;;;;;;34.72;21.00;;;;;;;18.30;100.00;94847.50;5078644;28;20059;-87
2022/10/10 07:04:17;;;;;;;39.53;21.05;;;;;;;18.35;100.00;94850.03;5078262;28;20020;-87
2022/10/10 07:06:42;;;;;;;30.17;20.63;;;;;;;18.69;100.00;94847.81;5078262;28;20035;-87
2022/10/10 07:09:08;;;;;;;40.03;20.65;;;;;;;18.54;100.00;94843.72;5078105;28;20024;-87
2022/10/10 07:11:34;;;;;;;36.13;22.67;;;;;;;18.21;100.00;94855.41;5077946;28;20028;-87
2022/10/10 07:13:59;;;;;;;41.10;21.88;;;;;;;18.51;100.00;94858.38;5079351;28;20021;-87
2022/10/10 07:16:25;;;;;;;30.10;20.52;;;;;;;19.06;100.00;94857.16;5079248;28;20070;-87
2022/10/10 07:18:50;;;;;;;32.22;19.95;;;;;;;19.11;100.00;94856.25;5077930;28;20052;-87
2022/10/10 07:21:16;;;;;;;31.13;17.48;;;;;;;19.74;100.00;94858.66;5077987;28;20020;-87
2022/10/10 07:23:41;;;;;;;31.38;17.75;;;;;;;20.10;100.00;94859.44;5077982;28;20079;-87
2022/10/10 07:26:10;;;;;;;33.03;17.75;;;;;;;19.28;100.00;94863.47;5077799;28;20036;-87
2022/10/10 07:28:36;;;;;;;23.42;15.52;;;;;;;20.03;100.00;94859.91;5061315;28;20021;-87
2022/10/10 07:31:04;;;;;;;25.70;16.23;;;;;;;20.37;100.00;94860.16;5078732;28;20126;-87
2022/10/10 07:33:34;;;;;;;34.10;18.73;;;;;;;20.07;100.00;94860.03;5077781;28;20032;-87
2022/10/10 07:36:00;;;;;;;30.77;16.48;;;;;;;20.42;100.00;94859.97;5061254;28;20032;-87
2022/10/10 07:38:25;;;;;;;24.63;15.85;;;;;;;20.66;100.00;94868.50;5061521;28;20360;-87
2022/10/10 07:40:51;;;;;;;26.55;16.25;;;;;;;20.60;100.00;94860.72;5078034;28;20432;-87
2022/10/10 07:43:17;;;;;;;26.90;17.00;;;;;;;19.52;100.00;94872.88;5061097;28;20027;-87
2022/10/10 07:45:42;;;;;;;25.15;16.75;;;;;;;20.51;100.00;94873.25;5077773;28;20036;-87
2022/10/10 07:48:07;;;;;;;36.00;18.90;;;;;;;19.59;100.00;94883.81;5077695;28;20031;-87
2022/10/10 07:50:33;;;;;;;28.45;17.08;;;;;;;19.48;100.00;94879.91;5060547;28;20111;-87
2022/10/10 07:52:58;;;;;;;25.73;16.58;;;;;;;20.42;100.00;94881.25;5077388;28;20028;-87
2022/10/10 07:55:26;;;;;;;28.55;16.90;;;;;;;20.16;100.00;94882.09;5060645;28;20032;-87
2022/10/10 07:57:51;;;;;;;37.88;18.98;;;;;;;19.29;100.00;94877.53;5076962;28;20074;-87
2022/10/10 08:00:17;;;;;;;28.08;17.60;;;;;;;20.00;100.00;94881.78;5076970;28;20433;-87
2022/10/10 08:02:43;;;;;;;33.80;18.00;;;;;;;19.98;100.00;94889.31;5061044;28;20032;-87
2022/10/10 08:05:08;;;;;;;28.98;17.13;;;;;;;19.97;100.00;94877.13;5077428;28;20037;-87
2022/10/10 08:07:34;;;;;;;30.08;18.33;;;;;;;20.28;100.00;94883.34;5077338;28;20036;-87
2022/10/10 08:10:01;;;;;;;27.83;16.85;;;;;;;20.84;100.00;94880.66;5076687;28;20082;-87
2022/10/10 08:12:26;;;;;;;28.45;17.35;;;;;;;20.05;100.00;94878.19;5076972;28;20024;-87
2022/10/10 08:14:52;;;;;;;28.88;16.42;;;;;;;20.18;100.00;94879.13;5076948;28;20354;-87
2022/10/10 08:17:17;;;;;;;26.92;15.70;;;;;;;20.12;100.00;94865.22;5078092;28;20162;-87
2022/10/10 08:19:43;;;;;;;24.33;15.65;;;;;;;20.89;100.00;94877.06;5060228;28;20051;-87
2022/10/10 08:22:08;;;;;;;25.50;16.45;;;;;;;20.81;100.00;94877.88;5077951;28;20035;-87
2022/10/10 08:24:34;;;;;;;23.20;15.75;;;;;;;21.11;100.00;94883.22;5077033;28;20036;-87
2022/10/10 08:26:59;;;;;;;25.08;14.50;;;;;;;20.94;100.00;94890.16;5077768;28;20334;-87
2022/10/10 08:29:25;;;;;;;25.92;14.38;;;;;;;21.04;100.00;94879.16;5076742;28;20025;-87
2022/10/10 08:31:50;;;;;;;29.65;16.60;;;;;;;20.11;100.00;94884.13;5060230;28;20028;-87
2022/10/10 08:34:15;;;;;;;27.42;14.60;;;;;;;20.69;100.00;94891.81;5059833;28;20425;-87
2022/10/10 08:36:41;;;;;;;26.45;15.20;;;;;;;20.51;100.00;94880.44;5076578;28;20027;-87
2022/10/10 08:39:06;;;;;;;28.65;15.15;;;;;;;20.68;100.00;94872.41;5077556;28;20028;-87
2022/10/10 08:41:48;;;;;;;22.05;14.50;;;;;;;21.46;100.00;94883.00;5075880;28;20059;-87
2022/10/10 08:44:20;;;;;;;26.30;14.27;;;;;;;21.18;100.00;94888.81;5076474;28;20020;-88
2022/10/10 08:46:53;;;;;;;28.42;16.35;;;;;;;20.10;100.00;94878.06;5076371;28;20086;-87
2022/10/10 08:49:29;;;;;;;31.70;17.27;;;;;;;20.81;100.00;94880.56;5059871;28;20044;-87
2022/10/10 08:52:02;;;;;;;28.05;14.90;;;;;;;20.84;100.00;94882.56;5059795;28;20124;-87
2022/10/10 08:54:28;;;;;;;23.73;13.85;;;;;;;21.15;100.00;94879.56;5076033;28;20338;-87
2022/10/10 08:56:57;;;;;;;31.45;15.00;;;;;;;21.26;100.00;94880.00;5076094;28;20024;-87
2022/10/10 08:59:25;;;;;;;28.00;16.45;;;;;;;20.32;100.00;94873.63;5076385;28;20024;-88
2022/10/10 09:01:57;;;;;;;27.90;15.90;;;;;;;21.24;100.00;94878.75;5076387;28;20034;-88
2022/10/10 09:04:22;;;;;;;27.35;15.07;;;;;;;21.70;100.00;94876.28;5059643;28;20093;-88
2022/10/10 09:07:18;;;;;;;27.08;14.65;;;;;;;22.20;100.00;94882.59;5077108;28;20032;-88
2022/10/10 09:09:57;;;;;;;29.30;14.75;;;;;;;22.68;100.00;94880.38;5059403;28;20024;-88
2022/10/10 09:12:45;;;;;;;18.35;12.82;;;;;;;22.45;100.00;94888.75;5076537;28;20465;-88
2022/10/10 09:15:30;;;;;;;22.30;12.85;;;;;;;21.37;100.00;94885.72;5077404;28;20060;-87
2022/10/10 09:18:12;;;;;;;23.88;14.00;;;;;;;20.32;100.00;94886.91;5075949;28;20043;-87
2022/10/10 09:20:41;;;;;;;25.30;13.75;;;;;;;21.37;100.00;94891.06;5075788;28;20323;-87
2022/10/10 09:23:16;;;;;;;21.95;14.00;;;;;;;22.45;100.00;94887.97;5075809;28;20025;-87
2022/10/10 09:25:46;;;;;;;25.67;15.40;;;;;;;22.42;100.00;94892.09;5075877;28;20032;-87
2022/10/10 09:28:24;;;;;;;27.02;15.60;;;;;;;22.08;100.00;94891.31;5075716;28;20055;-87
2022/10/10 09:30:55;;;;;;;26.35;15.82;;;;;;;21.87;100.00;94886.78;5076573;28;20119;-88
2022/10/10 09:33:45;;;;;;;28.85;14.52;;;;;;;22.52;100.00;94882.91;5075971;28;20025;-88
2022/10/10 09:36:15;;;;;;;23.05;13.82;;;;;;;23.64;100.00;94882.91;5089330;28;20384;-93
2022/10/10 09:38:46;;;;;;;27.20;13.50;;;;;;;23.00;99.49;94875.28;5070078;28;20346;-91
2022/10/10 09:41:33;;;;;;;26.17;13.55;;;;;;;22.43;100.00;94890.19;5058900;28;20433;-92
2022/10/10 09:44:03;;;;;;;22.83;13.93;;;;;;;21.82;100.00;94887.00;5075470;28;20036;-91
2022/10/10 09:46:29;;;;;;;29.02;15.98;;;;;;;20.95;100.00;94875.00;5075620;28;20041;-92
2022/10/10 09:48:56;;;;;;;27.85;14.48;;;;;;;21.18;100.00;94881.59;5075557;28;20069;-92
2022/10/10 09:51:21;;;;;;;31.88;15.43;;;;;;;21.19;100.00;94885.84;5058771;28;20078;-91
2022/10/10 09:53:48;;;;;;;23.58;14.10;;;;;;;21.75;100.00;94889.41;5076285;28;20468;-93
2022/10/10 09:56:19;;;;;;;29.23;14.88;;;;;;;21.58;100.00;94885.75;5062895;28;20029;-91
2022/10/10 09:58:47;;;;;;;24.73;13.77;;;;;;;21.95;100.00;94881.69;5062700;28;20077;-92
2022/10/10 10:01:17;;;;;;;21.70;13.68;;;;;;;21.88;100.00;94888.34;5062686;28;20028;-91
2022/10/10 10:03:43;;;;;;;31.40;15.85;;;;;;;20.29;100.00;94888.31;5079490;28;20441;-92
2022/10/10 10:06:14;;;;;;;26.90;16.15;;;;;;;20.64;100.00;94892.78;5078874;28;20032;-90
2022/10/10 10:08:40;;;;;;;31.05;16.70;;;;;;;20.90;100.00;94886.59;5079179;28;20029;-91
2022/10/10 10:11:22;;;;;;;31.00;16.55;;;;;;;20.97;100.00;94884.22;5062918;28;20346;-91
2022/10/10 10:13:53;;;;;;;30.85;15.38;;;;;;;21.18;100.00;94883.47;5062567;28;20047;-91
2022/10/10 10:16:18;;;;;;;27.00;16.50;;;;;;;20.74;100.00;94876.47;5062561;28;20021;-91
2022/10/10 10:18:45;;;;;;;28.23;15.88;;;;;;;20.87;100.00;94879.25;5079274;28;20033;-92
2022/10/10 10:21:22;;;;;;;27.92;15.85;;;;;;;21.03;100.00;94888.25;5062516;28;20036;-92
2022/10/10 10:23:53;;;;;;;28.42;16.45;;;;;;;20.70;100.00;94882.72;5062620;28;20035;-93
2022/10/10 10:26:23;;;;;;;29.17;14.73;;;;;;;21.52;100.00;94888.91;5078927;28;20039;-91
2022/10/10 10:28:50;;;;;;;30.23;16.25;;;;;;;21.04;100.00;94884.50;5078768;28;20052;-92
2022/10/10 10:31:23;;;;;;;30.80;17.13;;;;;;;20.26;100.00;94888.19;5078731;28;20028;-91
2022/10/10 10:33:53;;;;;;;26.35;15.13;;;;;;;20.62;100.00;94892.31;5078908;28;20032;-91
2022/10/10 10:36:45;;;;;;;33.30;16.33;;;;;;;20.58;100.00;94886.84;5078856;28;20471;-91
2022/10/10 10:39:44;;;;;;;29.95;17.10;;;;;;;20.43;100.00;94890.81;5078768;28;20035;-91
2022/10/10 10:42:54;;;;;;;28.80;16.35;;;;;;;21.28;100.00;94896.44;5062039;28;20330;-92
2022/10/10 10:45:28;;;;;;;33.83;18.27;;;;;;;20.11;100.00;94898.22;5057558;28;20060;-92
2022/10/10 10:48:21;;;;;;;26.85;16.73;;;;;;;20.39;100.00;94897.88;5041108;28;20086;-91
2022/10/10 10:51:11;;;;;;;24.55;14.35;;;;;;;21.64;100.00;94893.53;5066271;28;20047;-92
2022/10/10 10:53:47;;;;;;;27.83;15.68;;;;;;;20.95;100.00;94894.44;5079485;28;20433;-91
2022/10/10 10:56:35;;;;;;;27.88;15.15;;;;;;;21.13;100.00;94891.66;5078257;28;20055;-91
2022/10/10 10:59:20;;;;;;;26.50;14.77;;;;;;;20.45;100.00;94893.16;5078456;28;20038;-91
2022/10/10 11:02:05;;;;;;;28.17;15.68;;;;;;;20.33;100.00;94880.50;5061756;28;20024;-92
2022/10/10 11:04:59;;;;;;;34.20;15.65;;;;;;;20.99;100.00;94884.69;5077767;28;20028;-92
2022/10/10 11:07:36;;;;;;;32.55;14.15;;;;;;;21.49;100.00;94895.66;5078162;28;20035;-92
2022/10/10 11:10:07;;;;;;;27.30;15.43;;;;;;;20.43;100.00;94896.13;5061630;28;20043;-92
2022/10/10 11:12:44;;;;;;;24.63;14.45;;;;;;;21.17;100.00;94887.25;5078564;28;20066;-93
2022/10/10 11:15:31;;;;;;;24.38;13.38;;;;;;;21.36;100.00;94896.69;5061570;28;20029;-92
2022/10/10 11:18:08;;;;;;;22.67;13.02;;;;;;;21.10;100.00;94887.00;5078326;28;20078;-92
2022/10/10 11:20:40;;;;;;;28.75;15.30;;;;;;;21.08;100.00;94892.63;5079256;28;20369;-91